sensor_id;sensor_type;location;lat;lon;timestamp;pressure;altitude;pressure_sealevel;temperature;humidity
77321;BME280;66382;52.252;8.780;2023-09-19T00:02:13;99631.16;;;17.50;67.43
77321;BME280;66382;52.252;8.780;2023-09-19T00:04:40;99636.00;;;17.48;67.20
77321;BME280;66382;52.252;8.780;2023-09-19T00:07:06;99640.63;;;17.47;67.23
77321;BME280;66382;52.252;8.780;2023-09-19T00:09:32;99629.78;;;17.47;67.09
77321;BME280;66382;52.252;8.780;2023-09-19T00:11:57;99639.81;;;17.47;67.33
77321;BME280;66382;52.252;8.780;2023-09-19T00:14:24;99641.69;;;17.46;67.34
77321;BME280;66382;52.252;8.780;2023-09-19T00:16:50;99653.91;;;17.49;67.26
77321;BME280;66382;52.252;8.780;2023-09-19T00:19:16;99655.31;;;17.51;67.56
77321;BME280;66382;52.252;8.780;2023-09-19T00:21:43;99648.78;;;17.52;67.27
77321;BME280;66382;52.252;8.780;2023-09-19T00:24:09;99652.31;;;17.53;67.29
77321;BME280;66382;52.252;8.780;2023-09-19T00:26:34;99656.41;;;17.55;67.34
77321;BME280;66382;52.252;8.780;2023-09-19T00:29:00;99666.72;;;17.53;67.20
77321;BME280;66382;52.252;8.780;2023-09-19T00:31:26;99676.47;;;17.54;67.42
77321;BME280;66382;52.252;8.780;2023-09-19T00:33:51;99677.28;;;17.55;67.64
77321;BME280;66382;52.252;8.780;2023-09-19T00:36:17;99679.47;;;17.58;67.57
77321;BME280;66382;52.252;8.780;2023-09-19T00:38:44;99678.66;;;17.57;67.28
77321;BME280;66382;52.252;8.780;2023-09-19T00:41:10;99673.81;;;17.59;67.03
77321;BME280;66382;52.252;8.780;2023-09-19T00:43:35;99674.31;;;17.56;67.24
77321;BME280;66382;52.252;8.780;2023-09-19T00:46:01;99680.78;;;17.55;67.43
77321;BME280;66382;52.252;8.780;2023-09-19T00:48:27;99684.34;;;17.56;67.51
77321;BME280;66382;52.252;8.780;2023-09-19T00:50:53;99677.03;;;17.56;67.52
77321;BME280;66382;52.252;8.780;2023-09-19T00:53:22;99687.06;;;17.56;67.43
77321;BME280;66382;52.252;8.780;2023-09-19T00:55:51;99684.34;;;17.56;67.27
77321;BME280;66382;52.252;8.780;2023-09-19T00:58:17;99690.31;;;17.58;67.33
77321;BME280;66382;52.252;8.780;2023-09-19T01:00:43;99694.09;;;17.57;67.48
77321;BME280;66382;52.252;8.780;2023-09-19T01:03:09;99693.88;;;17.58;67.16
77321;BME280;66382;52.252;8.780;2023-09-19T01:05:35;99705.53;;;17.59;67.27
77321;BME280;66382;52.252;8.780;2023-09-19T01:08:01;99698.72;;;17.56;67.29
77321;BME280;66382;52.252;8.780;2023-09-19T01:10:27;99708.75;;;17.56;67.10
77321;BME280;66382;52.252;8.780;2023-09-19T01:13:04;99713.88;;;17.57;66.95
77321;BME280;66382;52.252;8.780;2023-09-19T01:15:39;99714.41;;;17.54;66.68
77321;BME280;66382;52.252;8.780;2023-09-19T01:18:16;99715.97;;;17.50;66.63
77321;BME280;66382;52.252;8.780;2023-09-19T01:20:55;99713.22;;;17.45;66.66
77321;BME280;66382;52.252;8.780;2023-09-19T01:23:32;99719.19;;;17.47;66.51
77321;BME280;66382;52.252;8.780;2023-09-19T01:26:09;99727.84;;;17.44;66.67
77321;BME280;66382;52.252;8.780;2023-09-19T01:28:51;99716.19;;;17.44;66.69
77321;BME280;66382;52.252;8.780;2023-09-19T01:31:19;99723.81;;;17.47;67.19
77321;BME280;66382;52.252;8.780;2023-09-19T01:33:59;99720.00;;;17.48;66.87
77321;BME280;66382;52.252;8.780;2023-09-19T01:36:26;99721.97;;;17.52;67.16
77321;BME280;66382;52.252;8.780;2023-09-19T01:38:54;99729.84;;;17.54;67.21
77321;BME280;66382;52.252;8.780;2023-09-19T01:41:26;99731.25;;;17.56;67.09
77321;BME280;66382;52.252;8.780;2023-09-19T01:43:56;99748.31;;;17.57;67.37
77321;BME280;66382;52.252;8.780;2023-09-19T01:46:25;99750.22;;;17.56;67.20
77321;BME280;66382;52.252;8.780;2023-09-19T01:49:02;99732.81;;;17.52;66.97
77321;BME280;66382;52.252;8.780;2023-09-19T01:51:37;99749.34;;;17.51;67.10
77321;BME280;66382;52.252;8.780;2023-09-19T01:54:09;99749.56;;;17.49;66.88
77321;BME280;66382;52.252;8.780;2023-09-19T01:56:40;99747.09;;;17.48;66.94
77321;BME280;66382;52.252;8.780;2023-09-19T01:59:11;99759.03;;;17.47;66.88
77321;BME280;66382;52.252;8.780;2023-09-19T02:01:42;99741.38;;;17.44;66.70
77321;BME280;66382;52.252;8.780;2023-09-19T02:04:10;99750.34;;;17.45;66.72
77321;BME280;66382;52.252;8.780;2023-09-19T02:06:39;99757.66;;;17.44;66.42
77321;BME280;66382;52.252;8.780;2023-09-19T02:09:05;99762.50;;;17.42;66.34
77321;BME280;66382;52.252;8.780;2023-09-19T02:11:31;99760.28;;;17.39;66.37
77321;BME280;66382;52.252;8.780;2023-09-19T02:13:56;99771.38;;;17.37;66.24
77321;BME280;66382;52.252;8.780;2023-09-19T02:16:22;99761.03;;;17.34;66.00
77321;BME280;66382;52.252;8.780;2023-09-19T02:18:49;99769.16;;;17.34;66.67
77321;BME280;66382;52.252;8.780;2023-09-19T02:21:15;99762.13;;;17.33;65.97
77321;BME280;66382;52.252;8.780;2023-09-19T02:23:41;99767.22;;;17.30;65.67
77321;BME280;66382;52.252;8.780;2023-09-19T02:26:06;99771.81;;;17.29;65.86
77321;BME280;66382;52.252;8.780;2023-09-19T02:28:32;99765.59;;;17.29;65.89
77321;BME280;66382;52.252;8.780;2023-09-19T02:30:58;99779.13;;;17.29;65.82
77321;BME280;66382;52.252;8.780;2023-09-19T02:33:24;99779.59;;;17.26;65.61
77321;BME280;66382;52.252;8.780;2023-09-19T02:35:55;99779.06;;;17.24;65.75
77321;BME280;66382;52.252;8.780;2023-09-19T02:38:21;99782.00;;;17.22;65.82
77321;BME280;66382;52.252;8.780;2023-09-19T02:40:46;99778.22;;;17.23;66.00
77321;BME280;66382;52.252;8.780;2023-09-19T02:43:12;99778.22;;;17.23;65.87
77321;BME280;66382;52.252;8.780;2023-09-19T02:45:38;99777.97;;;17.25;66.33
77321;BME280;66382;52.252;8.780;2023-09-19T02:48:04;99784.47;;;17.24;65.98
77321;BME280;66382;52.252;8.780;2023-09-19T02:50:30;99786.41;;;17.28;65.92
77321;BME280;66382;52.252;8.780;2023-09-19T02:52:57;99782.66;;;17.29;66.05
77321;BME280;66382;52.252;8.780;2023-09-19T02:55:22;99792.41;;;17.30;65.88
77321;BME280;66382;52.252;8.780;2023-09-19T02:57:49;99790.22;;;17.27;65.69
77321;BME280;66382;52.252;8.780;2023-09-19T03:00:16;99800.47;;;17.25;65.56
77321;BME280;66382;52.252;8.780;2023-09-19T03:02:42;99791.75;;;17.23;65.81
77321;BME280;66382;52.252;8.780;2023-09-19T03:05:08;99797.19;;;17.23;65.70
77321;BME280;66382;52.252;8.780;2023-09-19T03:07:34;99792.84;;;17.22;65.73
77321;BME280;66382;52.252;8.780;2023-09-19T03:10:01;99793.94;;;17.21;65.46
77321;BME280;66382;52.252;8.780;2023-09-19T03:12:27;99793.94;;;17.21;65.47
77321;BME280;66382;52.252;8.780;2023-09-19T03:14:52;99802.88;;;17.22;65.60
77321;BME280;66382;52.252;8.780;2023-09-19T03:17:18;99798.50;;;17.20;65.64
77321;BME280;66382;52.252;8.780;2023-09-19T03:19:44;99799.59;;;17.19;65.75
77321;BME280;66382;52.252;8.780;2023-09-19T03:22:09;99802.28;;;17.19;65.40
77321;BME280;66382;52.252;8.780;2023-09-19T03:24:35;99811.22;;;17.20;65.47
77321;BME280;66382;52.252;8.780;2023-09-19T03:27:02;99805.25;;;17.18;65.55
77321;BME280;66382;52.252;8.780;2023-09-19T03:29:28;99811.50;;;17.18;65.61
77321;BME280;66382;52.252;8.780;2023-09-19T03:31:54;99807.94;;;17.18;65.39
77321;BME280;66382;52.252;8.780;2023-09-19T03:34:20;99805.50;;;17.16;65.01
77321;BME280;66382;52.252;8.780;2023-09-19T03:36:45;99805.44;;;17.11;65.42
77321;BME280;66382;52.252;8.780;2023-09-19T03:39:11;99807.56;;;17.09;65.07
77321;BME280;66382;52.252;8.780;2023-09-19T03:41:37;99808.53;;;17.03;65.23
77321;BME280;66382;52.252;8.780;2023-09-19T03:44:04;99805.25;;;17.01;65.08
77321;BME280;66382;52.252;8.780;2023-09-19T03:46:30;99804.94;;;16.97;65.59
77321;BME280;66382;52.252;8.780;2023-09-19T03:48:55;99811.09;;;16.93;65.40
77321;BME280;66382;52.252;8.780;2023-09-19T03:51:21;99803.72;;;16.88;65.58
77321;BME280;66382;52.252;8.780;2023-09-19T03:53:47;99811.03;;;16.88;65.06
77321;BME280;66382;52.252;8.780;2023-09-19T03:56:12;99812.09;;;16.87;65.43
77321;BME280;66382;52.252;8.780;2023-09-19T03:58:38;99799.03;;;16.84;65.38
77321;BME280;66382;52.252;8.780;2023-09-19T04:01:05;99806.84;;;16.80;64.98
77321;BME280;66382;52.252;8.780;2023-09-19T04:03:31;99814.84;;;16.75;65.49
77321;BME280;66382;52.252;8.780;2023-09-19T04:05:57;99808.06;;;16.72;65.53
77321;BME280;66382;52.252;8.780;2023-09-19T04:08:22;99815.81;;;16.69;65.10
77321;BME280;66382;52.252;8.780;2023-09-19T04:10:48;99816.59;;;16.64;65.10
77321;BME280;66382;52.252;8.780;2023-09-19T04:13:14;99809.28;;;16.65;65.52
77321;BME280;66382;52.252;8.780;2023-09-19T04:15:39;99813.03;;;16.64;65.34
77321;BME280;66382;52.252;8.780;2023-09-19T04:18:06;99821.66;;;16.61;64.92
77321;BME280;66382;52.252;8.780;2023-09-19T04:20:32;99822.97;;;16.58;65.16
77321;BME280;66382;52.252;8.780;2023-09-19T04:22:58;99830.25;;;16.58;65.35
77321;BME280;66382;52.252;8.780;2023-09-19T04:25:24;99832.38;;;16.55;65.42
77321;BME280;66382;52.252;8.780;2023-09-19T04:27:49;99830.50;;;16.56;65.29
77321;BME280;66382;52.252;8.780;2023-09-19T04:30:15;99844.03;;;16.56;65.25
77321;BME280;66382;52.252;8.780;2023-09-19T04:32:41;99831.00;;;16.53;64.98
77321;BME280;66382;52.252;8.780;2023-09-19T04:35:09;99837.31;;;16.59;64.99
77321;BME280;66382;52.252;8.780;2023-09-19T04:37:37;99856.00;;;16.60;65.07
77321;BME280;66382;52.252;8.780;2023-09-19T04:40:03;99862.47;;;16.59;65.31
77321;BME280;66382;52.252;8.780;2023-09-19T04:42:29;99857.06;;;16.59;65.15
77321;BME280;66382;52.252;8.780;2023-09-19T04:44:55;99847.31;;;16.58;65.21
77321;BME280;66382;52.252;8.780;2023-09-19T04:47:20;99852.16;;;16.56;64.77
77321;BME280;66382;52.252;8.780;2023-09-19T04:49:46;99858.28;;;16.51;64.96
77321;BME280;66382;52.252;8.780;2023-09-19T04:52:13;99869.03;;;16.46;64.96
77321;BME280;66382;52.252;8.780;2023-09-19T04:54:39;99863.59;;;16.46;64.86
77321;BME280;66382;52.252;8.780;2023-09-19T04:57:04;99865.63;;;16.39;65.29
77321;BME280;66382;52.252;8.780;2023-09-19T04:59:30;99858.91;;;16.42;64.64
77321;BME280;66382;52.252;8.780;2023-09-19T05:01:56;99858.91;;;16.42;64.99
77321;BME280;66382;52.252;8.780;2023-09-19T05:04:21;99866.47;;;16.40;64.86
77321;BME280;66382;52.252;8.780;2023-09-19T05:06:47;99871.31;;;16.38;64.64
77321;BME280;66382;52.252;8.780;2023-09-19T05:09:14;99865.53;;;16.34;65.16
77321;BME280;66382;52.252;8.780;2023-09-19T05:11:40;99864.72;;;16.33;65.10
77321;BME280;66382;52.252;8.780;2023-09-19T05:14:05;99861.44;;;16.31;64.92
77321;BME280;66382;52.252;8.780;2023-09-19T05:16:31;99865.13;;;16.25;64.59
77321;BME280;66382;52.252;8.780;2023-09-19T05:18:57;99872.06;;;16.21;64.88
77321;BME280;66382;52.252;8.780;2023-09-19T05:21:22;99885.84;;;16.20;64.84
77321;BME280;66382;52.252;8.780;2023-09-19T05:23:48;99886.56;;;16.15;65.24
77321;BME280;66382;52.252;8.780;2023-09-19T05:26:15;99899.72;;;16.11;65.00
77321;BME280;66382;52.252;8.780;2023-09-19T05:28:41;99911.53;;;16.05;64.63
77321;BME280;66382;52.252;8.780;2023-09-19T05:31:06;99914.44;;;16.04;65.19
77321;BME280;66382;52.252;8.780;2023-09-19T05:33:32;99923.16;;;16.06;65.42
77321;BME280;66382;52.252;8.780;2023-09-19T05:35:58;99930.44;;;16.05;65.32
77321;BME280;66382;52.252;8.780;2023-09-19T05:38:23;99926.09;;;16.04;65.42
77321;BME280;66382;52.252;8.780;2023-09-19T05:40:49;99931.25;;;16.06;65.48
77321;BME280;66382;52.252;8.780;2023-09-19T05:43:16;99935.03;;;16.05;65.08
77321;BME280;66382;52.252;8.780;2023-09-19T05:45:42;99935.75;;;16.00;64.88
77321;BME280;66382;52.252;8.780;2023-09-19T05:48:08;99940.31;;;16.00;65.15
77321;BME280;66382;52.252;8.780;2023-09-19T05:50:34;99946.56;;;16.00;65.00
77321;BME280;66382;52.252;8.780;2023-09-19T05:53:00;99942.19;;;15.99;65.06
77321;BME280;66382;52.252;8.780;2023-09-19T05:55:26;99942.19;;;15.99;65.27
77321;BME280;66382;52.252;8.780;2023-09-19T05:57:52;99937.59;;;16.00;65.01
77321;BME280;66382;52.252;8.780;2023-09-19T06:00:19;99953.84;;;16.00;64.69
77321;BME280;66382;52.252;8.780;2023-09-19T06:02:49;99954.69;;;16.00;64.78
77321;BME280;66382;52.252;8.780;2023-09-19T06:05:15;99943.59;;;16.13;65.91
77321;BME280;66382;52.252;8.780;2023-09-19T06:07:41;99941.38;;;16.39;65.66
77321;BME280;66382;52.252;8.780;2023-09-19T06:10:07;99951.00;;;16.75;66.13
77321;BME280;66382;52.252;8.780;2023-09-19T06:12:33;99944.28;;;17.07;65.57
77321;BME280;66382;52.252;8.780;2023-09-19T06:14:59;99935.91;;;17.42;65.62
77321;BME280;66382;52.252;8.780;2023-09-19T06:17:26;99928.31;;;17.78;65.12
77321;BME280;66382;52.252;8.780;2023-09-19T06:19:51;99938.50;;;18.10;65.15
77321;BME280;66382;52.252;8.780;2023-09-19T06:22:17;99931.31;;;18.42;64.25
77321;BME280;66382;52.252;8.780;2023-09-19T06:24:43;99936.50;;;18.71;63.77
77321;BME280;66382;52.252;8.780;2023-09-19T06:27:09;99922.13;;;18.98;63.07
77321;BME280;66382;52.252;8.780;2023-09-19T06:29:34;99927.50;;;19.25;62.56
77321;BME280;66382;52.252;8.780;2023-09-19T06:32:00;99932.34;;;19.55;63.09
77321;BME280;66382;52.252;8.780;2023-09-19T06:34:27;99935.81;;;19.88;62.90
77321;BME280;66382;52.252;8.780;2023-09-19T06:36:53;99935.97;;;20.13;62.38
77321;BME280;66382;52.252;8.780;2023-09-19T06:39:18;99939.31;;;20.31;61.69
77321;BME280;66382;52.252;8.780;2023-09-19T06:41:44;99944.84;;;20.56;61.24
77321;BME280;66382;52.252;8.780;2023-09-19T06:44:10;99935.66;;;20.78;60.98
77321;BME280;66382;52.252;8.780;2023-09-19T06:46:35;99951.19;;;20.93;61.06
77321;BME280;66382;52.252;8.780;2023-09-19T06:49:01;99946.84;;;21.22;60.00
77321;BME280;66382;52.252;8.780;2023-09-19T06:51:28;99942.78;;;21.40;60.13
77321;BME280;66382;52.252;8.780;2023-09-19T06:53:54;99940.03;;;21.61;59.31
77321;BME280;66382;52.252;8.780;2023-09-19T06:56:19;99938.84;;;21.93;59.97
77321;BME280;66382;52.252;8.780;2023-09-19T06:58:45;99929.50;;;22.24;59.41
77321;BME280;66382;52.252;8.780;2023-09-19T07:01:11;99937.81;;;22.53;59.84
77321;BME280;66382;52.252;8.780;2023-09-19T07:03:36;99941.78;;;22.76;58.54
77321;BME280;66382;52.252;8.780;2023-09-19T07:06:02;99946.09;;;22.88;56.99
77321;BME280;66382;52.252;8.780;2023-09-19T07:08:29;99971.84;;;22.71;56.34
77321;BME280;66382;52.252;8.780;2023-09-19T07:10:56;99972.06;;;22.36;56.44
77321;BME280;66382;52.252;8.780;2023-09-19T07:13:22;99973.22;;;22.04;55.92
77321;BME280;66382;52.252;8.780;2023-09-19T07:15:47;99955.03;;;21.74;56.30
77321;BME280;66382;52.252;8.780;2023-09-19T07:18:14;99968.97;;;21.57;56.33
77321;BME280;66382;52.252;8.780;2023-09-19T07:20:40;99980.41;;;21.48;56.22
77321;BME280;66382;52.252;8.780;2023-09-19T07:23:05;99972.75;;;21.30;55.76
77321;BME280;66382;52.252;8.780;2023-09-19T07:25:33;99975.19;;;21.06;56.00
77321;BME280;66382;52.252;8.780;2023-09-19T07:27:58;99985.50;;;20.83;55.68
77321;BME280;66382;52.252;8.780;2023-09-19T07:30:24;99991.16;;;20.56;55.98
77321;BME280;66382;52.252;8.780;2023-09-19T07:32:50;99991.34;;;20.45;56.83
77321;BME280;66382;52.252;8.780;2023-09-19T07:35:16;99991.44;;;20.60;57.57
77321;BME280;66382;52.252;8.780;2023-09-19T07:37:41;100002.66;;;20.89;56.88
77321;BME280;66382;52.252;8.780;2023-09-19T07:40:07;99983.91;;;21.08;56.57
77321;BME280;66382;52.252;8.780;2023-09-19T07:42:35;99981.19;;;21.13;56.88
77321;BME280;66382;52.252;8.780;2023-09-19T07:45:00;99987.75;;;21.27;57.44
77321;BME280;66382;52.252;8.780;2023-09-19T07:47:26;99991.84;;;21.45;57.75
77321;BME280;66382;52.252;8.780;2023-09-19T07:49:52;99982.56;;;21.67;57.67
77321;BME280;66382;52.252;8.780;2023-09-19T07:52:18;99990.69;;;21.98;57.31
77321;BME280;66382;52.252;8.780;2023-09-19T07:54:43;99990.41;;;22.20;56.03
77321;BME280;66382;52.252;8.780;2023-09-19T07:57:09;99984.94;;;22.09;55.96
77321;BME280;66382;52.252;8.780;2023-09-19T07:59:36;99996.41;;;22.11;56.27
77321;BME280;66382;52.252;8.780;2023-09-19T08:02:02;99989.28;;;22.10;56.02
77321;BME280;66382;52.252;8.780;2023-09-19T08:04:28;99981.63;;;22.23;55.93
77321;BME280;66382;52.252;8.780;2023-09-19T08:06:53;99988.41;;;22.41;56.72
77321;BME280;66382;52.252;8.780;2023-09-19T08:09:19;99986.91;;;22.69;56.61
77321;BME280;66382;52.252;8.780;2023-09-19T08:11:45;99990.81;;;22.97;57.09
77321;BME280;66382;52.252;8.780;2023-09-19T08:14:11;99988.09;;;22.97;54.92
77321;BME280;66382;52.252;8.780;2023-09-19T08:16:44;99989.38;;;22.70;55.99
77321;BME280;66382;52.252;8.780;2023-09-19T08:19:10;99990.31;;;22.45;54.67
77321;BME280;66382;52.252;8.780;2023-09-19T08:21:36;99989.84;;;22.23;54.25
77321;BME280;66382;52.252;8.780;2023-09-19T08:24:02;99984.69;;;21.96;55.21
77321;BME280;66382;52.252;8.780;2023-09-19T08:26:28;99981.16;;;21.95;55.16
77321;BME280;66382;52.252;8.780;2023-09-19T08:28:53;99983.88;;;22.00;55.00
77321;BME280;66382;52.252;8.780;2023-09-19T08:31:19;99989.63;;;21.99;55.28
77321;BME280;66382;52.252;8.780;2023-09-19T08:33:46;99989.09;;;21.92;54.75
77321;BME280;66382;52.252;8.780;2023-09-19T08:36:12;99997.59;;;21.69;54.89
77321;BME280;66382;52.252;8.780;2023-09-19T08:38:37;99997.88;;;21.53;54.54
77321;BME280;66382;52.252;8.780;2023-09-19T08:41:06;100001.97;;;21.45;55.73
77321;BME280;66382;52.252;8.780;2023-09-19T08:43:32;100001.16;;;21.39;54.66
77321;BME280;66382;52.252;8.780;2023-09-19T08:46:15;100010.38;;;21.38;56.40
77321;BME280;66382;52.252;8.780;2023-09-19T08:48:48;100008.19;;;21.35;56.07
77321;BME280;66382;52.252;8.780;2023-09-19T08:51:26;100001.38;;;21.12;55.16
77321;BME280;66382;52.252;8.780;2023-09-19T08:54:00;100007.06;;;21.00;55.16
77321;BME280;66382;52.252;8.780;2023-09-19T08:56:29;100004.34;;;20.95;55.84
77321;BME280;66382;52.252;8.780;2023-09-19T08:58:57;100007.63;;;21.08;56.24
77321;BME280;66382;52.252;8.780;2023-09-19T09:01:26;100009.56;;;21.17;55.95
77321;BME280;66382;52.252;8.780;2023-09-19T09:03:55;100012.53;;;21.16;56.19
77321;BME280;66382;52.252;8.780;2023-09-19T09:06:21;100019.63;;;21.12;55.06
77321;BME280;66382;52.252;8.780;2023-09-19T09:08:47;100006.00;;;21.12;55.85
77321;BME280;66382;52.252;8.780;2023-09-19T09:11:14;100011.97;;;21.09;55.54
77321;BME280;66382;52.252;8.780;2023-09-19T09:13:41;100003.81;;;21.09;54.92
77321;BME280;66382;52.252;8.780;2023-09-19T09:16:07;100007.88;;;21.01;55.39
77321;BME280;66382;52.252;8.780;2023-09-19T09:18:33;100005.41;;;20.89;55.08
77321;BME280;66382;52.252;8.780;2023-09-19T09:21:00;99998.34;;;20.93;55.53
77321;BME280;66382;52.252;8.780;2023-09-19T09:23:26;100010.34;;;21.08;55.25
77321;BME280;66382;52.252;8.780;2023-09-19T09:25:53;100000.81;;;21.10;55.87
77321;BME280;66382;52.252;8.780;2023-09-19T09:28:20;100008.44;;;21.18;54.00
77321;BME280;66382;52.252;8.780;2023-09-19T09:30:46;100001.09;;;21.24;55.73
77321;BME280;66382;52.252;8.780;2023-09-19T09:33:13;99998.34;;;21.24;54.39
77321;BME280;66382;52.252;8.780;2023-09-19T09:35:48;100012.84;;;21.30;56.13
77321;BME280;66382;52.252;8.780;2023-09-19T09:38:15;100009.00;;;21.31;55.57
77321;BME280;66382;52.252;8.780;2023-09-19T09:40:48;100001.63;;;21.31;55.60
77321;BME280;66382;52.252;8.780;2023-09-19T09:43:25;100012.28;;;21.33;55.84
77321;BME280;66382;52.252;8.780;2023-09-19T09:46:06;100009.56;;;21.33;56.74
77321;BME280;66382;52.252;8.780;2023-09-19T09:48:32;99995.13;;;21.42;55.65
77321;BME280;66382;52.252;8.780;2023-09-19T09:50:58;100015.34;;;21.41;53.81
77321;BME280;66382;52.252;8.780;2023-09-19T09:53:26;100019.34;;;21.23;54.87
77321;BME280;66382;52.252;8.780;2023-09-19T09:56:03;100012.28;;;21.12;55.70
77321;BME280;66382;52.252;8.780;2023-09-19T09:58:29;100013.63;;;21.04;54.51
77321;BME280;66382;52.252;8.780;2023-09-19T10:00:55;100020.69;;;21.05;54.93
77321;BME280;66382;52.252;8.780;2023-09-19T10:03:21;100029.72;;;21.21;56.10
77321;BME280;66382;52.252;8.780;2023-09-19T10:05:53;100014.22;;;21.47;56.04
77321;BME280;66382;52.252;8.780;2023-09-19T10:08:18;100009.31;;;21.60;55.54
77321;BME280;66382;52.252;8.780;2023-09-19T10:10:46;100013.66;;;21.66;54.72
77321;BME280;66382;52.252;8.780;2023-09-19T10:13:13;100013.97;;;21.64;54.80
77321;BME280;66382;52.252;8.780;2023-09-19T10:15:39;100015.31;;;21.67;54.47
77321;BME280;66382;52.252;8.780;2023-09-19T10:18:07;100032.25;;;21.64;53.69
77321;BME280;66382;52.252;8.780;2023-09-19T10:20:36;100013.41;;;21.52;53.46
77321;BME280;66382;52.252;8.780;2023-09-19T10:23:05;100021.59;;;21.42;53.62
77321;BME280;66382;52.252;8.780;2023-09-19T10:25:31;100012.06;;;21.39;52.19
77321;BME280;66382;52.252;8.780;2023-09-19T10:28:00;100019.66;;;21.37;53.51
77321;BME280;66382;52.252;8.780;2023-09-19T10:30:28;100020.72;;;21.36;53.73
77321;BME280;66382;52.252;8.780;2023-09-19T10:32:59;100013.66;;;21.35;53.74
77321;BME280;66382;52.252;8.780;2023-09-19T10:35:25;100014.72;;;21.24;53.50
77321;BME280;66382;52.252;8.780;2023-09-19T10:37:54;100027.81;;;21.27;54.25
77321;BME280;66382;52.252;8.780;2023-09-19T10:40:20;100025.38;;;21.25;52.87
77321;BME280;66382;52.252;8.780;2023-09-19T10:42:48;100028.34;;;21.24;53.03
77321;BME280;66382;52.252;8.780;2023-09-19T10:45:17;100025.63;;;21.19;52.36
77321;BME280;66382;52.252;8.780;2023-09-19T10:47:42;100025.09;;;21.12;52.39
77321;BME280;66382;52.252;8.780;2023-09-19T10:50:09;100009.53;;;21.07;52.76
77321;BME280;66382;52.252;8.780;2023-09-19T10:52:40;100016.34;;;21.10;53.01
77321;BME280;66382;52.252;8.780;2023-09-19T10:55:07;100019.63;;;21.12;53.60
77321;BME280;66382;52.252;8.780;2023-09-19T10:57:34;100022.88;;;21.14;52.99
77321;BME280;66382;52.252;8.780;2023-09-19T11:00:03;100009.25;;;21.09;53.45
77321;BME280;66382;52.252;8.780;2023-09-19T11:02:31;100014.44;;;21.05;52.77
77321;BME280;66382;52.252;8.780;2023-09-19T11:05:11;100013.31;;;20.91;54.23
77321;BME280;66382;52.252;8.780;2023-09-19T11:07:56;100004.81;;;20.82;54.19
77321;BME280;66382;52.252;8.780;2023-09-19T11:10:46;100010.00;;;20.78;54.40
77321;BME280;66382;52.252;8.780;2023-09-19T11:13:24;100003.75;;;20.78;54.51
77321;BME280;66382;52.252;8.780;2023-09-19T11:16:22;99998.31;;;20.78;54.72
77321;BME280;66382;52.252;8.780;2023-09-19T11:18:53;100001.28;;;20.76;54.44
77321;BME280;66382;52.252;8.780;2023-09-19T11:21:41;99991.19;;;20.72;54.73
77321;BME280;66382;52.252;8.780;2023-09-19T11:24:30;99991.72;;;20.69;54.95
77321;BME280;66382;52.252;8.780;2023-09-19T11:27:09;99996.09;;;20.70;54.98
77321;BME280;66382;52.252;8.780;2023-09-19T11:29:35;100005.59;;;20.67;53.68
77321;BME280;66382;52.252;8.780;2023-09-19T11:32:01;99991.16;;;20.61;53.93
77321;BME280;66382;52.252;8.780;2023-09-19T11:34:57;99997.16;;;20.58;54.64
77321;BME280;66382;52.252;8.780;2023-09-19T11:38:04;100006.34;;;20.52;54.97
77321;BME280;66382;52.252;8.780;2023-09-19T11:40:30;100004.16;;;20.54;54.30
77321;BME280;66382;52.252;8.780;2023-09-19T11:42:56;99997.97;;;20.59;54.15
77321;BME280;66382;52.252;8.780;2023-09-19T11:48:35;99993.81;;;20.51;53.58
77321;BME280;66382;52.252;8.780;2023-09-19T11:51:10;99996.78;;;20.50;54.80
77321;BME280;66382;52.252;8.780;2023-09-19T11:53:36;99995.44;;;20.52;54.18
77321;BME280;66382;52.252;8.780;2023-09-19T11:56:06;100000.63;;;20.54;54.13
77321;BME280;66382;52.252;8.780;2023-09-19T11:58:32;99996.28;;;20.53;53.58
77321;BME280;66382;52.252;8.780;2023-09-19T12:01:00;99997.34;;;20.47;53.85
77321;BME280;66382;52.252;8.780;2023-09-19T12:03:29;99999.78;;;20.43;54.51
77321;BME280;66382;52.252;8.780;2023-09-19T12:05:55;100003.88;;;20.40;53.40
77321;BME280;66382;52.252;8.780;2023-09-19T12:08:22;100006.56;;;20.35;53.95
77321;BME280;66382;52.252;8.780;2023-09-19T12:10:49;100000.78;;;20.27;54.31
77321;BME280;66382;52.252;8.780;2023-09-19T12:13:16;100014.97;;;20.29;53.98
77321;BME280;66382;52.252;8.780;2023-09-19T12:15:42;100014.44;;;20.32;53.68
77321;BME280;66382;52.252;8.780;2023-09-19T12:18:08;100003.81;;;20.30;53.90
77321;BME280;66382;52.252;8.780;2023-09-19T12:20:43;99998.63;;;20.29;54.74
77321;BME280;66382;52.252;8.780;2023-09-19T12:23:13;100006.00;;;20.33;54.30
77321;BME280;66382;52.252;8.780;2023-09-19T12:25:42;100002.19;;;20.34;54.15
77321;BME280;66382;52.252;8.780;2023-09-19T12:28:08;99993.47;;;20.32;54.10
77321;BME280;66382;52.252;8.780;2023-09-19T12:30:34;99991.03;;;20.31;54.18
77321;BME280;66382;52.252;8.780;2023-09-19T12:33:00;99986.66;;;20.35;53.54
77321;BME280;66382;52.252;8.780;2023-09-19T12:35:29;99983.94;;;20.35;53.50
77321;BME280;66382;52.252;8.780;2023-09-19T12:37:54;99979.34;;;20.35;53.57
77321;BME280;66382;52.252;8.780;2023-09-19T12:40:21;99980.16;;;20.36;53.83
77321;BME280;66382;52.252;8.780;2023-09-19T12:42:49;99985.31;;;20.37;54.54
77321;BME280;66382;52.252;8.780;2023-09-19T12:45:15;99987.53;;;20.40;53.94
77321;BME280;66382;52.252;8.780;2023-09-19T12:48:23;99983.72;;;20.41;54.88
77321;BME280;66382;52.252;8.780;2023-09-19T12:51:05;99968.50;;;20.46;54.69
77321;BME280;66382;52.252;8.780;2023-09-19T12:53:32;99985.38;;;20.48;53.65
77321;BME280;66382;52.252;8.780;2023-09-19T12:55:58;99968.75;;;20.44;53.89
77321;BME280;66382;52.252;8.780;2023-09-19T12:58:26;99968.47;;;20.40;53.08
77321;BME280;66382;52.252;8.780;2023-09-19T13:00:52;99958.09;;;20.37;52.41
77321;BME280;66382;52.252;8.780;2023-09-19T13:03:24;99961.94;;;20.41;53.27
77321;BME280;66382;52.252;8.780;2023-09-19T13:05:54;99960.34;;;20.51;53.98